Time;durP1;ratioP1;P1;durP2;ratioP2;P2;SDS_P1;SDS_P2;PMS_P1;PMS_P2;Temp;Humidity;BMP_temperature;BMP_pressure;BME280_temperature;BME280_humidity;BME280_pressure;Samples;Min_cycle;Max_cycle;Signal;HPM_P1;HPM_P2
2022/08/16 00:01:05;;;;;;;5.38;4.03;;;21.20;99.90;;;;;;5056073;28;20036;-74
2022/08/16 00:03:31;;;;;;;5.43;4.13;;;21.10;99.90;;;;;;5041644;28;20040;-78
2022/08/16 00:05:56;;;;;;;9.32;4.75;;;21.10;99.90;;;;;;5041297;28;20121;-78
2022/08/16 00:08:22;;;;;;;7.32;5.05;;;21.10;99.90;;;;;;5022635;28;20042;-77
2022/08/16 00:10:48;;;;;;;8.10;5.28;;;21.00;99.90;;;;;;5040135;28;20525;-78
2022/08/16 00:13:13;;;;;;;7.03;5.30;;;21.00;99.90;;;;;;5055973;28;20040;-74
2022/08/16 00:15:43;;;;;;;5.43;4.85;;;21.00;99.90;;;;;;5039909;28;20037;-78
2022/08/16 00:18:09;;;;;;;6.47;4.85;;;20.90;99.90;;;;;;5055480;28;20072;-76
2022/08/16 00:20:37;;;;;;;7.22;5.07;;;20.90;99.90;;;;;;5023012;28;20407;-77
2022/08/16 00:23:04;;;;;;;6.72;5.10;;;20.90;99.90;;;;;;5056140;28;20036;-74
2022/08/16 00:25:30;;;;;;;7.22;5.00;;;20.80;99.90;;;;;;5040075;28;20075;-75
2022/08/16 00:27:56;;;;;;;8.40;5.70;;;20.80;99.90;;;;;;5039688;28;20041;-78
2022/08/16 00:30:22;;;;;;;6.35;5.38;;;20.80;99.90;;;;;;5056600;28;20082;-74
2022/08/16 00:32:51;;;;;;;8.05;5.00;;;20.80;99.90;;;;;;5039411;28;20044;-78
2022/08/16 00:35:22;;;;;;;6.35;4.88;;;20.80;99.90;;;;;;5056041;28;20040;-74
2022/08/16 00:37:48;;;;;;;6.38;5.10;;;20.80;99.90;;;;;;5055076;28;20492;-75
2022/08/16 00:40:25;;;;;;;7.47;4.22;;;20.70;99.90;;;;;;5055278;28;20044;-76
2022/08/16 00:42:52;;;;;;;9.48;5.22;;;20.80;99.90;;;;;;5054863;28;20080;-77
2022/08/16 00:45:17;;;;;;;5.80;4.78;;;20.80;99.90;;;;;;5039431;28;20076;-76
2022/08/16 00:47:46;;;;;;;6.43;4.93;;;20.80;99.90;;;;;;5039137;28;20055;-75
2022/08/16 00:50:12;;;;;;;7.75;4.70;;;20.80;99.90;;;;;;5038759;28;20052;-78
2022/08/16 00:52:40;;;;;;;7.15;5.35;;;20.80;99.90;;;;;;5039039;28;20040;-78
2022/08/16 00:55:07;;;;;;;10.02;5.78;;;20.70;99.90;;;;;;5039242;28;20040;-78
2022/08/16 00:57:34;;;;;;;8.27;5.30;;;20.70;99.90;;;;;;5038541;28;20082;-74
2022/08/16 01:00:01;;;;;;;7.53;5.43;;;20.70;99.90;;;;;;5056034;28;20055;-77
2022/08/16 01:02:27;;;;;;;7.47;5.20;;;20.70;99.90;;;;;;5055738;28;20416;-74
2022/08/16 01:04:53;;;;;;;7.82;5.28;;;20.70;99.90;;;;;;5056231;28;20044;-74
2022/08/16 01:07:19;;;;;;;7.35;5.47;;;20.60;99.90;;;;;;5038691;28;20040;-75
2022/08/16 01:09:45;;;;;;;7.80;5.10;;;20.60;99.90;;;;;;5039403;28;20040;-77
2022/08/16 01:12:11;;;;;;;7.18;4.82;;;20.60;99.90;;;;;;5022307;28;20136;-75
2022/08/16 01:14:45;;;;;;;7.95;5.35;;;20.50;99.90;;;;;;5038855;28;20044;-78
2022/08/16 01:17:14;;;;;;;11.50;5.63;;;20.50;99.90;;;;;;5038951;28;20037;-77
2022/08/16 01:19:44;;;;;;;8.30;5.38;;;20.50;99.90;;;;;;5022287;28;20040;-77
2022/08/16 01:22:13;;;;;;;;;;;20.50;99.90;;;;;;5056431;28;20051;-74
2022/08/16 01:24:44;;;;;;;6.60;4.95;;;20.50;99.90;;;;;;5054881;28;19917;-75
2022/08/16 01:27:17;;;;;;;8.27;5.43;;;20.50;99.90;;;;;;5056352;28;20067;-75
2022/08/16 01:29:50;;;;;;;8.98;6.18;;;20.50;99.90;;;;;;5037973;28;20419;-76
2022/08/16 01:32:16;;;;;;;8.80;6.85;;;20.50;99.90;;;;;;5055696;28;20043;-74
2022/08/16 01:34:42;;;;;;;10.50;6.25;;;20.50;99.90;;;;;;5056430;28;20037;-77
2022/08/16 01:37:11;;;;;;;7.75;5.93;;;20.50;99.90;;;;;;5054517;28;20093;-77
2022/08/16 01:39:37;;;;;;;7.95;5.90;;;20.50;99.90;;;;;;5039249;28;20048;-75
2022/08/16 01:42:06;;;;;;;8.43;6.25;;;20.40;99.90;;;;;;5039728;28;20185;-77
2022/08/16 01:44:32;;;;;;;8.48;6.32;;;20.40;99.90;;;;;;5055144;28;20470;-77
2022/08/16 01:46:58;;;;;;;8.05;6.03;;;20.40;99.90;;;;;;5038012;28;20068;-77
2022/08/16 01:49:31;;;;;;;9.63;6.68;;;20.50;99.90;;;;;;5038055;28;20033;-74
2022/08/16 01:52:01;;;;;;;8.20;6.07;;;20.40;99.90;;;;;;5038289;28;20043;-74
2022/08/16 01:54:26;;;;;;;8.82;6.35;;;20.50;99.90;;;;;;5056448;28;20041;-77
2022/08/16 01:56:52;;;;;;;13.35;6.75;;;20.40;99.90;;;;;;5027151;28;20391;-77
2022/08/16 01:59:18;;;;;;;10.00;6.97;;;20.40;99.90;;;;;;5042823;28;20041;-77
2022/08/16 02:01:49;;;;;;;9.13;6.20;;;20.40;99.90;;;;;;5059432;28;20047;-77
2022/08/16 02:04:16;;;;;;;11.27;6.57;;;20.40;99.90;;;;;;5025346;28;20051;-74
2022/08/16 02:06:42;;;;;;;9.88;6.35;;;20.40;99.90;;;;;;5058078;28;20040;-77
2022/08/16 02:09:09;;;;;;;9.05;6.88;;;20.40;99.90;;;;;;5058989;28;20131;-77
2022/08/16 02:11:36;;;;;;;10.13;6.50;;;20.40;99.90;;;;;;5058871;28;20483;-77
2022/08/16 02:14:03;;;;;;;8.30;6.10;;;20.40;99.90;;;;;;5057990;28;20032;-76
2022/08/16 02:16:28;;;;;;;9.50;6.50;;;20.40;99.90;;;;;;5024977;28;20041;-75
2022/08/16 02:18:54;;;;;;;8.63;6.60;;;20.40;99.90;;;;;;5041747;28;20062;-77
2022/08/16 02:21:20;;;;;;;9.38;6.07;;;20.30;99.90;;;;;;5041329;28;20036;-74
2022/08/16 02:23:46;;;;;;;10.70;6.50;;;20.30;99.90;;;;;;5058032;28;20090;-77
2022/08/16 02:26:14;;;;;;;9.63;6.78;;;20.30;99.90;;;;;;5058373;28;20495;-75
2022/08/16 02:28:40;;;;;;;10.40;7.43;;;20.20;99.90;;;;;;5025425;28;20040;-77
2022/08/16 02:31:09;;;;;;;9.77;6.60;;;20.20;99.90;;;;;;5057635;28;20106;-76
2022/08/16 02:33:35;;;;;;;8.32;6.07;;;20.20;99.90;;;;;;5057952;28;20381;-77
2022/08/16 02:36:01;;;;;;;9.40;6.78;;;20.10;99.90;;;;;;5057839;28;20410;-74
2022/08/16 02:38:28;;;;;;;7.80;5.80;;;20.10;99.90;;;;;;5040553;28;20052;-76
2022/08/16 02:40:55;;;;;;;8.38;5.63;;;20.00;99.90;;;;;;5057556;28;20052;-74
2022/08/16 02:43:26;;;;;;;8.60;6.20;;;20.00;99.90;;;;;;5040558;28;20044;-76
2022/08/16 02:45:52;;;;;;;8.10;6.38;;;19.90;99.90;;;;;;5057331;28;20098;-77
2022/08/16 02:48:17;;;;;;;9.35;6.88;;;19.80;99.90;;;;;;5040758;28;20442;-74
2022/08/16 02:50:43;;;;;;;9.75;6.07;;;19.80;99.90;;;;;;5041101;28;20098;-74
2022/08/16 02:53:10;;;;;;;9.38;6.45;;;19.80;99.90;;;;;;5041922;28;20097;-76
2022/08/16 02:55:36;;;;;;;11.50;6.22;;;19.80;99.90;;;;;;5057288;28;20040;-75
2022/08/16 02:58:02;;;;;;;8.82;6.45;;;19.80;99.90;;;;;;5056922;28;20040;-75
2022/08/16 03:00:27;;;;;;;10.27;6.60;;;19.80;99.90;;;;;;5024356;28;20041;-77
2022/08/16 03:02:54;;;;;;;9.27;7.00;;;19.80;99.90;;;;;;5040524;28;20037;-75
2022/08/16 03:05:20;;;;;;;9.40;6.40;;;19.70;99.90;;;;;;5055821;28;20048;-74
2022/08/16 03:07:46;;;;;;;7.75;6.45;;;19.70;99.90;;;;;;5056747;28;20040;-75
2022/08/16 03:10:12;;;;;;;8.40;6.03;;;19.70;99.90;;;;;;5040320;28;20404;-76
2022/08/16 03:12:39;;;;;;;10.20;6.45;;;19.70;99.90;;;;;;5057314;28;20036;-77
2022/08/16 03:15:07;;;;;;;11.93;7.10;;;19.70;99.90;;;;;;5057440;28;20044;-77
2022/08/16 03:17:34;;;;;;;9.75;6.80;;;19.60;99.90;;;;;;5057287;28;20094;-75
2022/08/16 03:20:00;;;;;;;8.75;6.65;;;19.60;99.90;;;;;;5056740;28;20055;-76
2022/08/16 03:22:26;;;;;;;16.08;6.65;;;19.60;99.90;;;;;;5056835;28;20044;-76
2022/08/16 03:24:52;;;;;;;9.38;6.63;;;19.50;99.90;;;;;;5040300;28;20407;-75
2022/08/16 03:27:18;;;;;;;7.90;6.63;;;19.50;99.90;;;;;;5056498;28;20066;-75
2022/08/16 03:29:43;;;;;;;10.60;7.03;;;19.50;99.90;;;;;;5040378;28;20135;-74
2022/08/16 03:32:09;;;;;;;10.48;6.97;;;19.50;99.90;;;;;;5023202;28;20033;-75
2022/08/16 03:34:35;;;;;;;10.95;6.53;;;19.40;99.90;;;;;;5023664;28;20609;-77
2022/08/16 03:37:00;;;;;;;9.48;7.32;;;19.40;99.90;;;;;;5056375;28;20127;-75
2022/08/16 03:39:27;;;;;;;10.13;7.40;;;19.40;99.90;;;;;;5023927;28;20056;-77
2022/08/16 03:41:53;;;;;;;11.27;7.75;;;19.30;99.90;;;;;;5023595;28;20491;-76
2022/08/16 03:44:19;;;;;;;11.80;7.05;;;19.30;99.90;;;;;;5040050;28;20044;-77
2022/08/16 03:46:45;;;;;;;10.70;7.05;;;19.20;99.90;;;;;;5056386;28;20040;-74
2022/08/16 03:49:11;;;;;;;7.38;6.22;;;19.20;99.90;;;;;;5056019;28;20044;-75
2022/08/16 03:51:42;;;;;;;10.95;7.13;;;19.10;99.90;;;;;;5056431;28;20058;-77
2022/08/16 03:54:08;;;;;;;10.65;7.18;;;19.10;99.90;;;;;;5039728;28;20115;-74
2022/08/16 03:56:33;;;;;;;9.27;6.93;;;19.00;99.90;;;;;;5055749;28;20075;-75
2022/08/16 03:58:59;;;;;;;10.82;7.50;;;18.90;99.90;;;;;;5022653;28;20040;-74
2022/08/16 04:01:25;;;;;;;14.50;8.18;;;18.90;99.90;;;;;;5056509;28;20455;-77
2022/08/16 04:03:52;;;;;;;10.23;7.82;;;18.90;99.90;;;;;;5055767;28;20052;-74
2022/08/16 04:06:19;;;;;;;9.10;7.45;;;18.90;99.90;;;;;;5055814;28;20497;-77
2022/08/16 04:08:46;;;;;;;9.85;8.20;;;18.90;99.90;;;;;;5056005;28;20047;-75
2022/08/16 04:11:12;;;;;;;11.07;7.72;;;18.90;99.90;;;;;;5055961;28;20398;-77
2022/08/16 04:13:38;;;;;;;12.93;7.70;;;18.90;99.90;;;;;;5039746;28;20074;-76
2022/08/16 04:16:05;;;;;;;13.98;8.88;;;18.80;99.90;;;;;;5055852;28;20487;-77
2022/08/16 04:18:31;;;;;;;13.63;7.90;;;18.80;99.90;;;;;;5038873;28;20105;-75
2022/08/16 04:20:57;;;;;;;12.73;8.50;;;18.80;99.90;;;;;;5022520;28;20041;-74
2022/08/16 04:23:22;;;;;;;13.50;7.97;;;18.80;99.90;;;;;;5039311;28;20072;-76
2022/08/16 04:25:49;;;;;;;10.93;7.40;;;18.80;99.90;;;;;;5038786;28;20152;-75
2022/08/16 04:28:15;;;;;;;11.13;8.18;;;18.80;99.90;;;;;;5022329;28;20412;-74
2022/08/16 04:30:41;;;;;;;13.60;7.55;;;18.70;99.90;;;;;;5038818;28;20044;-75
2022/08/16 04:33:08;;;;;;;10.65;7.53;;;18.70;99.90;;;;;;5038869;28;20076;-75
2022/08/16 04:35:34;;;;;;;11.85;7.40;;;18.70;99.90;;;;;;5073034;28;20506;-75
2022/08/16 04:38:01;;;;;;;11.40;6.85;;;18.70;99.90;;;;;;5055610;28;20041;-76
2022/08/16 04:40:27;;;;;;;10.38;7.97;;;18.70;99.90;;;;;;5039757;28;20040;-75
2022/08/16 04:42:53;;;;;;;12.25;8.00;;;18.70;99.90;;;;;;5038530;28;20051;-75
2022/08/16 04:45:19;;;;;;;11.32;8.20;;;18.70;99.90;;;;;;5056164;28;20044;-74
2022/08/16 04:47:45;;;;;;;12.15;8.60;;;18.70;99.90;;;;;;5055295;28;20407;-74
2022/08/16 04:50:16;;;;;;;10.90;8.07;;;18.70;99.90;;;;;;5038572;28;20040;-77
2022/08/16 04:52:43;;;;;;;;;;;18.70;99.90;;;;;;5055617;28;20097;-77
2022/08/16 04:55:12;;;;;;;11.38;7.78;;;18.70;99.90;;;;;;5038966;28;19916;-75
2022/08/16 04:57:39;;;;;;;11.77;8.98;;;18.80;99.90;;;;;;5055422;28;20396;-74
2022/08/16 05:00:09;;;;;;;13.60;7.97;;;18.80;99.90;;;;;;5038897;28;20475;-77
2022/08/16 05:02:35;;;;;;;10.93;7.85;;;18.70;99.90;;;;;;5055314;28;20050;-75
2022/08/16 05:05:01;;;;;;;12.90;8.50;;;18.80;99.90;;;;;;5038349;28;20127;-77
2022/08/16 05:07:26;;;;;;;9.77;7.55;;;18.80;99.90;;;;;;5022153;28;20051;-75
2022/08/16 05:09:52;;;;;;;15.43;9.05;;;18.80;99.90;;;;;;5038855;28;20047;-77
2022/08/16 05:12:18;;;;;;;14.73;9.57;;;18.80;99.90;;;;;;5021938;28;20468;-74
2022/08/16 05:14:43;;;;;;;10.18;7.50;;;18.90;99.90;;;;;;5038258;28;20075;-75
2022/08/16 05:17:09;;;;;;;15.48;9.57;;;18.90;99.90;;;;;;5054929;28;20404;-76
2022/08/16 05:19:35;;;;;;;14.57;9.35;;;18.90;99.90;;;;;;5038303;28;20036;-74
2022/08/16 05:22:01;;;;;;;13.45;9.48;;;18.90;99.90;;;;;;5038298;28;20127;-77
2022/08/16 05:24:26;;;;;;;14.90;10.07;;;18.90;99.90;;;;;;5054938;28;20132;-77
2022/08/16 05:26:52;;;;;;;17.52;9.70;;;19.00;99.90;;;;;;5021749;28;20097;-75
2022/08/16 05:29:18;;;;;;;14.95;10.25;;;19.00;99.90;;;;;;5040035;28;20399;-76
2022/08/16 05:31:43;;;;;;;13.65;9.93;;;19.10;99.90;;;;;;5025453;28;20037;-76
2022/08/16 05:34:10;;;;;;;15.70;10.18;;;19.10;99.90;;;;;;5058665;28;20123;-77
2022/08/16 05:36:36;;;;;;;15.90;10.27;;;19.20;99.90;;;;;;5042016;28;20453;-77
2022/08/16 05:39:06;;;;;;;16.55;10.07;;;19.20;99.90;;;;;;5058245;28;20056;-77
2022/08/16 05:41:32;;;;;;;;;;;19.20;99.90;;;;;;5058631;28;20080;-73
2022/08/16 05:43:59;;;;;;;15.90;10.00;;;19.30;99.90;;;;;;5058638;28;20345;-77
2022/08/16 05:46:25;;;;;;;19.60;10.13;;;19.40;99.90;;;;;;5025564;28;20423;-74
2022/08/16 05:48:50;;;;;;;14.40;9.38;;;19.40;99.90;;;;;;5058347;28;20037;-75
2022/08/16 05:51:17;;;;;;;14.38;9.75;;;19.40;99.90;;;;;;5041831;28;20102;-80
2022/08/16 05:53:43;;;;;;;17.50;9.75;;;19.50;99.90;;;;;;5058366;28;20036;-72
2022/08/16 05:56:09;;;;;;;11.68;9.02;;;19.60;99.90;;;;;;5027204;28;20098;-75
2022/08/16 05:58:34;;;;;;;12.32;8.73;;;19.60;99.90;;;;;;5059269;28;20138;-80
2022/08/16 06:01:00;;;;;;;13.52;9.07;;;19.70;99.90;;;;;;5044259;28;20072;-79
2022/08/16 06:03:26;;;;;;;14.38;8.27;;;19.80;99.90;;;;;;5060956;28;20078;-83
2022/08/16 06:05:52;;;;;;;13.02;7.70;;;19.90;99.90;;;;;;5026462;28;20040;-83
2022/08/16 06:08:17;;;;;;;12.10;8.60;;;20.00;99.90;;;;;;5025196;28;20466;-82
2022/08/16 06:10:43;;;;;;;10.75;7.90;;;20.10;99.90;;;;;;5041354;28;20040;-79
2022/08/16 06:13:09;;;;;;;11.63;7.75;;;20.20;99.90;;;;;;5024685;28;20051;-79
2022/08/16 06:15:34;;;;;;;13.20;7.82;;;20.40;99.90;;;;;;5057805;28;20611;-82
2022/08/16 06:18:00;;;;;;;12.75;8.15;;;20.50;99.90;;;;;;5041004;28;20419;-79
2022/08/16 06:20:28;;;;;;;12.38;7.60;;;20.60;99.90;;;;;;5057664;28;20040;-82
2022/08/16 06:22:55;;;;;;;9.48;7.05;;;20.70;99.90;;;;;;5041012;28;20119;-78
2022/08/16 06:25:22;;;;;;;11.98;6.88;;;20.90;99.90;;;;;;5057900;28;20484;-83
2022/08/16 06:27:48;;;;;;;9.13;6.07;;;21.10;99.90;;;;;;5057598;28;20046;-83
2022/08/16 06:30:14;;;;;;;10.48;6.40;;;21.20;99.90;;;;;;5024353;28;20144;-73
2022/08/16 06:32:40;;;;;;;7.35;5.38;;;21.40;99.90;;;;;;5057337;28;20036;-78
2022/08/16 06:35:07;;;;;;;8.75;5.90;;;21.60;99.90;;;;;;5040693;28;20097;-78
2022/08/16 06:37:33;;;;;;;11.57;6.05;;;21.80;99.90;;;;;;5040866;28;20048;-85
2022/08/16 06:39:58;;;;;;;8.73;5.53;;;21.90;99.90;;;;;;5056084;28;20120;-78
2022/08/16 06:42:25;;;;;;;7.22;5.30;;;22.00;99.90;;;;;;5040632;28;20051;-86
2022/08/16 06:44:51;;;;;;;7.38;5.78;;;22.10;99.90;;;;;;5040811;28;20161;-79
2022/08/16 06:47:17;;;;;;;10.65;5.57;;;22.20;99.90;;;;;;5024424;28;20070;-79
2022/08/16 06:49:43;;;;;;;8.57;5.60;;;22.40;99.90;;;;;;5040553;28;20041;-81
2022/08/16 06:52:08;;;;;;;9.45;5.35;;;22.50;99.90;;;;;;5040737;28;20037;-81
2022/08/16 06:54:34;;;;;;;8.40;5.25;;;22.50;99.90;;;;;;5007662;28;20032;-82
2022/08/16 06:57:00;;;;;;;8.30;5.57;;;22.50;99.90;;;;;;5024212;28;20036;-76
2022/08/16 06:59:26;;;;;;;11.27;5.78;;;22.50;99.90;;;;;;5023907;28;20040;-77
2022/08/16 07:01:53;;;;;;;8.15;5.32;;;22.50;99.90;;;;;;5040284;28;20561;-76
2022/08/16 07:04:19;;;;;;;9.15;5.60;;;22.60;99.90;;;;;;5056843;28;20040;-79
2022/08/16 07:06:44;;;;;;;7.97;5.38;;;22.60;99.90;;;;;;5023796;28;20060;-75
2022/08/16 07:09:13;;;;;;;7.45;5.68;;;22.60;99.90;;;;;;5023555;28;20040;-76
2022/08/16 07:11:40;;;;;;;8.63;5.47;;;22.70;99.90;;;;;;5056764;28;20066;-76
2022/08/16 07:14:05;;;;;;;8.23;5.30;;;22.80;99.90;;;;;;5039928;28;20036;-79
2022/08/16 07:16:31;;;;;;;7.65;5.80;;;22.80;99.90;;;;;;5057186;28;20488;-79
2022/08/16 07:18:58;;;;;;;7.80;5.50;;;22.80;99.90;;;;;;5040322;28;20391;-82
2022/08/16 07:21:24;;;;;;;7.65;5.57;;;22.90;99.90;;;;;;5023675;28;20123;-79
2022/08/16 07:23:50;;;;;;;8.80;5.75;;;22.90;99.90;;;;;;5056728;28;20488;-75
2022/08/16 07:26:22;;;;;;;9.75;5.05;;;22.90;99.90;;;;;;5039943;28;20076;-80
2022/08/16 07:28:48;;;;;;;7.68;5.03;;;23.00;99.90;;;;;;5039754;28;20040;-78
2022/08/16 07:31:15;;;;;;;6.90;5.10;;;23.00;99.90;;;;;;5056570;28;20036;-76
2022/08/16 07:33:43;;;;;;;8.43;5.45;;;23.10;99.90;;;;;;5056697;28;20048;-75
2022/08/16 07:36:10;;;;;;;8.27;5.72;;;23.20;99.90;;;;;;5040092;28;20044;-81
2022/08/16 07:38:38;;;;;;;10.18;6.13;;;23.20;99.90;;;;;;5056078;28;20061;-80
2022/08/16 07:41:04;;;;;;;8.50;5.43;;;23.30;99.90;;;;;;5056130;28;20472;-79
2022/08/16 07:43:31;;;;;;;8.40;5.18;;;23.30;99.90;;;;;;5056161;28;20048;-72
2022/08/16 07:45:57;;;;;;;12.07;6.60;;;23.50;99.90;;;;;;5039673;28;20080;-75
2022/08/16 07:48:23;;;;;;;7.60;5.70;;;23.50;99.90;;;;;;5055863;28;20086;-77
2022/08/16 07:50:49;;;;;;;12.73;6.93;;;23.60;99.90;;;;;;5039131;28;20048;-77
2022/08/16 07:53:15;;;;;;;10.90;6.00;;;23.60;99.90;;;;;;5006544;28;20028;-77
2022/08/16 07:55:41;;;;;;;10.32;5.35;;;23.70;99.90;;;;;;5023070;28;20040;-75
2022/08/16 07:58:06;;;;;;;9.02;5.57;;;23.80;99.90;;;;;;5039490;28;20047;-75
2022/08/16 08:00:33;;;;;;;12.27;5.93;;;23.80;99.90;;;;;;5055646;28;20040;-79
2022/08/16 08:02:59;;;;;;;12.93;6.28;;;23.90;99.90;;;;;;5022955;28;20132;-81
2022/08/16 08:05:26;;;;;;;9.05;5.78;;;24.00;99.90;;;;;;5056039;28;20100;-82
2022/08/16 08:07:53;;;;;;;11.60;5.68;;;24.00;99.90;;;;;;5055602;28;20087;-76
2022/08/16 08:10:21;;;;;;;10.63;5.70;;;24.00;99.90;;;;;;5039082;28;20052;-78
2022/08/16 08:12:49;;;;;;;8.88;6.03;;;24.20;99.90;;;;;;5039652;28;20032;-80
2022/08/16 08:15:16;;;;;;;11.82;5.32;;;24.30;99.90;;;;;;5038928;28;20044;-80
2022/08/16 08:17:41;;;;;;;6.60;5.05;;;24.40;99.90;;;;;;5039201;28;20044;-79
2022/08/16 08:20:10;;;;;;;7.18;5.05;;;24.40;99.90;;;;;;5039006;28;20044;-79
2022/08/16 08:22:38;;;;;;;8.27;5.45;;;24.50;99.90;;;;;;5039019;28;20044;-73
2022/08/16 08:25:05;;;;;;;8.25;5.50;;;24.60;99.90;;;;;;5055987;28;20033;-73
2022/08/16 08:27:31;;;;;;;7.40;5.00;;;24.60;99.90;;;;;;5055594;28;20041;-73
2022/08/16 08:29:57;;;;;;;6.68;4.43;;;24.70;99.90;;;;;;5038715;28;20039;-79
2022/08/16 08:32:27;;;;;;;9.55;5.30;;;24.80;99.90;;;;;;5022141;28;20041;-78
2022/08/16 08:34:53;;;;;;;8.82;5.40;;;24.80;99.90;;;;;;5055187;28;20123;-74
2022/08/16 08:37:20;;;;;;;6.22;4.25;;;24.90;99.90;;;;;;5038621;28;20046;-73
2022/08/16 08:39:46;;;;;;;7.00;5.05;;;25.00;99.90;;;;;;5038505;28;20044;-77
2022/08/16 08:42:14;;;;;;;5.90;3.92;;;25.10;99.90;;;;;;5038667;28;20044;-80
2022/08/16 08:44:40;;;;;;;8.05;4.45;;;25.10;99.90;;;;;;5039042;28;20408;-76
2022/08/16 08:47:06;;;;;;;5.68;3.88;;;25.30;99.90;;;;;;5038717;28;20074;-74
2022/08/16 08:49:33;;;;;;;7.13;4.93;;;25.40;99.90;;;;;;5038309;28;20093;-79
2022/08/16 08:51:59;;;;;;;6.88;4.10;;;25.50;99.90;;;;;;5054981;28;20098;-74
2022/08/16 08:54:25;;;;;;;7.40;4.45;;;25.50;99.90;;;;;;5038521;28;20044;-77
2022/08/16 08:56:52;;;;;;;6.93;4.43;;;25.50;99.90;;;;;;5038403;28;20048;-75
2022/08/16 08:59:18;;;;;;;5.90;4.25;;;25.60;99.90;;;;;;5054919;28;20040;-75
2022/08/16 09:01:45;;;;;;;6.40;4.05;;;25.60;99.90;;;;;;5055120;28;20059;-78
2022/08/16 09:04:11;;;;;;;4.65;3.72;;;25.60;99.90;;;;;;5024006;28;20415;-75
2022/08/16 09:06:37;;;;;;;5.00;3.65;;;25.70;99.90;;;;;;5059251;28;20051;-77
2022/08/16 09:09:04;;;;;;;5.30;3.63;;;25.80;99.90;;;;;;5028471;28;20127;-79
2022/08/16 09:11:32;;;;;;;6.20;4.00;;;25.80;99.90;;;;;;5058906;28;20408;-76
2022/08/16 09:13:58;;;;;;;5.47;3.97;;;25.90;99.90;;;;;;5042420;28;20091;-79
2022/08/16 09:16:24;;;;;;;6.97;4.18;;;26.00;99.90;;;;;;5058826;28;20071;-72
2022/08/16 09:18:50;;;;;;;5.80;4.22;;;26.00;99.90;;;;;;5042294;28;20032;-78
2022/08/16 09:21:16;;;;;;;5.63;4.00;;;25.90;99.90;;;;;;5042374;28;20062;-78
2022/08/16 09:23:42;;;;;;;8.57;5.95;;;26.00;99.90;;;;;;5058627;28;20101;-79
2022/08/16 09:26:11;;;;;;;7.30;4.13;;;26.10;99.90;;;;;;5025639;28;20403;-78
2022/08/16 09:28:37;;;;;;;10.43;4.85;;;26.10;99.90;;;;;;5042287;28;20477;-76
2022/08/16 09:31:04;;;;;;;6.38;4.07;;;26.20;99.90;;;;;;5058414;28;20484;-76
2022/08/16 09:33:30;;;;;;;4.85;3.80;;;26.30;99.90;;;;;;5058600;28;20141;-70
2022/08/16 09:35:56;;;;;;;4.60;3.35;;;26.30;99.90;;;;;;5041900;28;20385;-81
2022/08/16 09:38:23;;;;;;;4.38;3.20;;;26.30;99.90;;;;;;5038646;28;20060;-76
2022/08/16 09:40:49;;;;;;;5.00;3.53;;;26.30;99.90;;;;;;5038590;28;20077;-72
2022/08/16 09:43:19;;;;;;;4.38;3.45;;;26.40;99.90;;;;;;5055037;28;20056;-71
2022/08/16 09:45:45;;;;;;;3.97;3.20;;;26.40;99.90;;;;;;5038427;28;20381;-72
2022/08/16 09:48:13;;;;;;;4.95;3.70;;;26.40;99.90;;;;;;5022240;28;20052;-79
2022/08/16 09:50:40;;;;;;;7.30;3.90;;;26.40;99.90;;;;;;5038499;28;20119;-80
2022/08/16 09:53:18;;;;;;;4.72;3.63;;;26.50;99.90;;;;;;5038258;28;20041;-79
2022/08/16 09:55:47;;;;;;;9.20;3.65;;;26.60;99.90;;;;;;5054854;28;20076;-74
2022/08/16 09:58:13;;;;;;;5.15;3.67;;;26.60;99.90;;;;;;5038123;28;20043;-75
2022/08/16 10:00:39;;;;;;;5.90;3.80;;;26.70;99.90;;;;;;5038139;28;20044;-72
2022/08/16 10:03:04;;;;;;;4.95;3.42;;;26.70;99.90;;;;;;5054655;28;20044;-78
2022/08/16 10:05:31;;;;;;;7.63;3.28;;;26.70;99.30;;;;;;5040795;28;20522;-75
2022/08/16 10:07:58;;;;;;;3.55;2.75;;;26.80;99.00;;;;;;5054554;28;20056;-75
2022/08/16 10:10:24;;;;;;;4.57;3.17;;;26.80;99.30;;;;;;5054599;28;20423;-73
2022/08/16 10:15:35;;;;;;;3.25;2.65;;;27.10;99.90;;;;;;5054182;28;20037;-78
2022/08/16 10:18:06;;;;;;;3.60;2.90;;;27.20;99.60;;;;;;5054470;28;20102;-78
2022/08/16 10:20:34;;;;;;;3.90;2.75;;;27.30;99.50;;;;;;5037872;28;20041;-80
2022/08/16 10:23:01;;;;;;;4.57;3.30;;;27.40;99.40;;;;;;5054688;28;20106;-79
2022/08/16 10:25:26;;;;;;;4.13;2.70;;;27.50;98.70;;;;;;5054320;28;20467;-72
2022/08/16 10:27:52;;;;;;;4.70;3.00;;;27.60;98.50;;;;;;5038010;28;20191;-76
2022/08/16 10:30:18;;;;;;;5.38;3.10;;;27.50;98.30;;;;;;5037613;28;20087;-72
2022/08/16 10:32:44;;;;;;;4.32;2.75;;;27.50;97.30;;;;;;5021206;28;20056;-82
2022/08/16 10:35:09;;;;;;;3.38;2.38;;;27.60;98.00;;;;;;5054352;28;20412;-74
2022/08/16 10:37:35;;;;;;;3.05;2.13;;;27.60;97.80;;;;;;5017683;28;20136;-71
2022/08/16 10:40:01;;;;;;;2.45;1.80;;;27.50;96.90;;;;;;5034422;28;20091;-73
2022/08/16 10:42:27;;;;;;;2.17;1.77;;;27.60;96.10;;;;;;5034378;28;20076;-74
2022/08/16 10:44:53;;;;;;;2.75;1.98;;;27.60;96.20;;;;;;5050668;28;20049;-75
2022/08/16 10:47:19;;;;;;;3.15;2.35;;;27.60;95.50;;;;;;5034312;28;20096;-79
2022/08/16 10:49:45;;;;;;;5.05;2.50;;;27.60;96.80;;;;;;5001351;28;20037;-77
2022/08/16 10:52:11;;;;;;;4.20;2.47;;;27.60;96.70;;;;;;5034177;28;20052;-76
2022/08/16 10:54:38;;;;;;;2.88;2.20;;;27.60;96.30;;;;;;5017924;28;20041;-77
2022/08/16 10:57:05;;;;;;;2.28;1.67;;;27.70;96.40;;;;;;5033774;28;20467;-77
2022/08/16 10:59:32;;;;;;;4.60;2.60;;;27.70;94.90;;;;;;5017703;28;20041;-78
2022/08/16 11:01:59;;;;;;;3.60;2.33;;;27.70;95.60;;;;;;5017242;28;20045;-76
2022/08/16 11:04:25;;;;;;;4.22;2.42;;;27.70;96.00;;;;;;5017131;28;20184;-79
2022/08/16 11:06:51;;;;;;;3.03;2.10;;;;;;;;;;5017433;28;20045;-77
2022/08/16 11:09:17;;;;;;;3.55;2.38;;;27.80;95.90;;;;;;5016833;28;20041;-76
2022/08/16 11:11:43;;;;;;;4.50;2.38;;;27.90;96.10;;;;;;5000703;28;20041;-77
2022/08/16 11:14:09;;;;;;;4.47;2.75;;;27.90;95.60;;;;;;5017332;28;20033;-74
2022/08/16 11:16:35;;;;;;;2.88;2.15;;;28.00;95.80;;;;;;5017229;28;20091;-80
2022/08/16 11:19:02;;;;;;;3.10;2.10;;;28.00;95.30;;;;;;5016748;28;20051;-77
2022/08/16 11:21:28;;;;;;;5.55;2.75;;;28.00;95.70;;;;;;5000793;28;20037;-75
2022/08/16 11:23:55;;;;;;;4.38;2.33;;;28.00;95.50;;;;;;5016851;28;20041;-71
2022/08/16 11:26:21;;;;;;;3.20;2.28;;;28.10;95.50;;;;;;5016322;28;20049;-75
2022/08/16 11:28:49;;;;;;;2.53;2.05;;;28.10;95.10;;;;;;5033499;28;20547;-72
2022/08/16 11:31:15;;;;;;;2.15;1.95;;;28.00;93.00;;;;;;5033047;28;20084;-77
2022/08/16 11:33:41;;;;;;;2.88;2.22;;;28.00;94.40;;;;;;5000368;28;20041;-71
2022/08/16 11:36:07;;;;;;;2.85;1.80;;;28.10;94.30;;;;;;5016939;28;20092;-74
2022/08/16 11:38:33;;;;;;;2.70;2.13;;;28.10;92.80;;;;;;5011974;28;20048;-70
2022/08/16 11:41:00;;;;;;;2.25;2.05;;;28.10;92.80;;;;;;5052861;28;20102;-75
2022/08/16 11:43:32;;;;;;;3.33;1.80;;;28.10;93.20;;;;;;5052847;28;20515;-77
2022/08/16 11:46:00;;;;;;;2.83;2.00;;;28.10;93.60;;;;;;5053042;28;20040;-76
2022/08/16 11:48:28;;;;;;;4.35;2.15;;;28.30;93.80;;;;;;5052704;28;20120;-71
2022/08/16 11:50:55;;;;;;;3.30;2.55;;;28.30;93.60;;;;;;5035974;28;20048;-74
2022/08/16 11:53:23;;;;;;;3.10;1.98;;;28.30;93.00;;;;;;5036032;28;20047;-77
2022/08/16 11:55:51;;;;;;;4.35;2.22;;;28.30;93.20;;;;;;5052758;28;20036;-74
2022/08/16 11:58:17;;;;;;;5.28;2.30;;;28.40;93.40;;;;;;5052537;28;20055;-75
2022/08/16 12:00:45;;;;;;;3.72;2.30;;;28.40;92.70;;;;;;5036134;28;20127;-75
2022/08/16 12:03:12;;;;;;;2.30;1.75;;;28.50;92.50;;;;;;5019680;28;20138;-77
2022/08/16 12:05:39;;;;;;;4.25;2.17;;;28.40;92.50;;;;;;5035848;28;20088;-71
2022/08/16 12:08:06;;;;;;;2.42;1.80;;;28.50;92.40;;;;;;5036083;28;20135;-77
2022/08/16 12:10:33;;;;;;;2.85;2.13;;;28.50;91.90;;;;;;5052218;28;20041;-75
2022/08/16 12:12:59;;;;;;;3.28;2.10;;;28.70;92.50;;;;;;5052109;28;20079;-77
2022/08/16 12:15:25;;;;;;;3.70;2.40;;;28.70;92.60;;;;;;5035689;28;20076;-77
2022/08/16 12:17:55;;;;;;;4.00;2.08;;;28.70;92.40;;;;;;5052450;28;20048;-75
2022/08/16 12:20:24;;;;;;;3.40;2.20;;;28.70;92.30;;;;;;5019596;28;20080;-71
2022/08/16 12:22:51;;;;;;;2.95;2.33;;;28.80;92.10;;;;;;5052156;28;20040;-77
2022/08/16 12:25:18;;;;;;;3.13;2.20;;;28.80;92.40;;;;;;5035634;28;20411;-74
2022/08/16 12:27:46;;;;;;;3.35;2.45;;;28.90;92.30;;;;;;5051973;28;20087;-77
2022/08/16 12:30:15;;;;;;;2.83;2.00;;;28.90;91.60;;;;;;5035364;28;20099;-75
2022/08/16 12:32:41;;;;;;;4.47;2.22;;;28.90;91.70;;;;;;5052198;28;20409;-72
2022/08/16 12:35:12;;;;;;;3.08;2.50;;;29.00;91.10;;;;;;5051957;28;20075;-77
2022/08/16 12:37:39;;;;;;;3.28;2.13;;;29.10;91.60;;;;;;5047088;28;20413;-77
2022/08/16 12:40:07;;;;;;;3.25;2.03;;;29.10;91.30;;;;;;5032187;28;20076;-74
2022/08/16 12:42:33;;;;;;;3.33;2.30;;;29.10;91.10;;;;;;4999388;28;20037;-71
2022/08/16 12:45:00;;;;;;;3.13;2.50;;;29.00;91.00;;;;;;5032134;28;20512;-71